Etusivu
METAR-TAF:

METAR-TAF

Lentoasemat :

Jerome County Airport

Jerome, Idaho, Yhdysvallat

Leveyspiiri: 42-43-36N, Pituuspiiri: 114-27-26W, korkeus merenpinnasta: 1234 m

Tämänhetkinen sää

Tämä raportti tehtiin 33 minuuttia sitten, kello 10.53 UTC
Tuuli 3 kn etelästä/kaakosta
Lämpötila 2°C
Kosteus 69%
Ilmanpaine 1022 hPa
Näkyvyys: 16.1 km
selkeää

METAR: KJER 181053Z AUTO 16003KT 10SM CLR 02/M03 A3019 RMK AO2 SLP223 T00171033 $

Aika: 04:26 (11:26 UTC)

Sääennuste

Tämä raportti tehtiin 6 tuntia ja 6 minuuttia sitten, kello 05.20 UTC
Ennuste voimassa 18. päivästä klo 06 UTC - 19. päivään klo 06 UTC
Tuuli 5 kn eri suunnista
Näkyvyys: 10 km
Hajanaisia pilviä 10000 ft:n korkeudessa
Hajonneita pilviä 20000 ft:n korkeudessa
From 18. päivästä klo 1200 UTC
Tuuli 9 kn idästä/koillisesta
Näkyvyys: 10 km
Hajanaisia pilviä 20000 ft:n korkeudessa

TAF: KJER 180520Z 1806/1906 VRB05KT P6SM SCT100 BKN200 FM181200 06009KT P6SM SCT200

Säähavainnot ja -ennusteet yli 4000 lentoasemalta (METAR- ja TAF-raportit).

Käytössä olevat sääasemat on merkitty karttaan keltaisilla ja punaisilla pisteillä.

Aseta hiiri pisteen päälle nähdäksesi sääaseman nimen.

Klikkaa sitten nähdäksesi säähavainnot ja -ennusteet.

Kartan vaihtaminen: klikkaa mustalla rastilla varustettuja vihreitä pisteitä, niin voit zoomata sisään; viivalla varustettua vihreää pistettä, niin voit zoomata ulos tai vihreitä nuolia, niin pääset viereisille kartoille.


METAR-TAF: